Terminal Aerodrome Forecast
Issued by NWS

Home | Current Version | Previous Version | Text Only | Print | Product List | Glossary Off
Versions: 1 2 3 4 5 6 7 8 9 10 11 12 13 14 15 16 17 18 19 20 21 22 23 24

000
FTUS43 KGRB 161133
TAFCWA
TAF
KCWA 161133Z 1612/1712 09004KT 2SM BR VCSH SCT003 BKN080
      TEMPO 1612/1615 1/2SM FG BKN002
     FM161500 11006KT P6SM VCSH SCT010 BKN100
     FM161800 12008KT P6SM BKN080 BKN200
     FM170100 10008KT P6SM VCSH SCT030 BKN050
     FM170400 12008KT 5SM SHRA VCTS BKN012CB
     FM170700 11007KT 2SM SHRA BR VCTS OVC005CB=

USA.gov is the U.S. government's official web portal to all federal, state and local government web resources and services.